sensor_id;sensor_type;location;lat;lon;timestamp;P1;durP1;ratioP1;P2;durP2;ratioP2
52730;SDS011;38624;53.242;6.974;2023-08-30T00:01:40;19.17;;;15.40;;
52730;SDS011;38624;53.242;6.974;2023-08-30T00:04:06;20.50;;;16.95;;
52730;SDS011;38624;53.242;6.974;2023-08-30T00:06:31;19.60;;;16.57;;
52730;SDS011;38624;53.242;6.974;2023-08-30T00:08:57;20.27;;;16.03;;
52730;SDS011;38624;53.242;6.974;2023-08-30T00:11:23;19.43;;;16.60;;
52730;SDS011;38624;53.242;6.974;2023-08-30T00:13:49;21.07;;;16.70;;
52730;SDS011;38624;53.242;6.974;2023-08-30T00:16:15;20.03;;;16.53;;
52730;SDS011;38624;53.242;6.974;2023-08-30T00:18:42;20.92;;;17.52;;
52730;SDS011;38624;53.242;6.974;2023-08-30T00:21:09;20.50;;;17.42;;
52730;SDS011;38624;53.242;6.974;2023-08-30T00:23:35;21.23;;;17.57;;
52730;SDS011;38624;53.242;6.974;2023-08-30T00:26:01;20.90;;;18.03;;
52730;SDS011;38624;53.242;6.974;2023-08-30T00:28:26;22.47;;;17.97;;
52730;SDS011;38624;53.242;6.974;2023-08-30T00:30:52;23.97;;;18.20;;
52730;SDS011;38624;53.242;6.974;2023-08-30T00:33:19;21.15;;;18.02;;
52730;SDS011;38624;53.242;6.974;2023-08-30T00:35:45;23.58;;;18.50;;
52730;SDS011;38624;53.242;6.974;2023-08-30T00:38:10;25.83;;;18.37;;
52730;SDS011;38624;53.242;6.974;2023-08-30T00:40:39;25.80;;;18.43;;
52730;SDS011;38624;53.242;6.974;2023-08-30T00:43:06;23.33;;;18.90;;
52730;SDS011;38624;53.242;6.974;2023-08-30T00:45:32;25.95;;;21.17;;
52730;SDS011;38624;53.242;6.974;2023-08-30T00:47:59;26.42;;;21.05;;
52730;SDS011;38624;53.242;6.974;2023-08-30T00:50:25;25.05;;;20.80;;
52730;SDS011;38624;53.242;6.974;2023-08-30T00:52:51;26.10;;;21.73;;
52730;SDS011;38624;53.242;6.974;2023-08-30T00:55:16;24.90;;;21.20;;
52730;SDS011;38624;53.242;6.974;2023-08-30T00:57:42;24.50;;;21.00;;
52730;SDS011;38624;53.242;6.974;2023-08-30T01:00:09;24.60;;;19.73;;
52730;SDS011;38624;53.242;6.974;2023-08-30T01:02:35;23.88;;;19.65;;
52730;SDS011;38624;53.242;6.974;2023-08-30T01:05:02;24.13;;;20.85;;
52730;SDS011;38624;53.242;6.974;2023-08-30T01:07:28;27.50;;;20.75;;
52730;SDS011;38624;53.242;6.974;2023-08-30T01:09:54;26.73;;;21.07;;
52730;SDS011;38624;53.242;6.974;2023-08-30T01:12:21;29.03;;;21.40;;
52730;SDS011;38624;53.242;6.974;2023-08-30T01:14:59;26.90;;;21.63;;
52730;SDS011;38624;53.242;6.974;2023-08-30T01:17:31;24.98;;;21.02;;
52730;SDS011;38624;53.242;6.974;2023-08-30T01:27:33;24.33;;;20.58;;
52730;SDS011;38624;53.242;6.974;2023-08-30T01:30:01;27.00;;;22.13;;
52730;SDS011;38624;53.242;6.974;2023-08-30T01:34:55;27.83;;;21.35;;
52730;SDS011;38624;53.242;6.974;2023-08-30T01:37:22;33.53;;;21.20;;
52730;SDS011;38624;53.242;6.974;2023-08-30T01:39:48;24.73;;;19.98;;
52730;SDS011;38624;53.242;6.974;2023-08-30T01:42:15;27.35;;;21.70;;
52730;SDS011;38624;53.242;6.974;2023-08-30T01:44:46;27.70;;;22.13;;
52730;SDS011;38624;53.242;6.974;2023-08-30T01:47:13;25.50;;;21.02;;
52730;SDS011;38624;53.242;6.974;2023-08-30T01:49:41;26.40;;;21.42;;
52730;SDS011;38624;53.242;6.974;2023-08-30T01:52:09;27.88;;;21.73;;
52730;SDS011;38624;53.242;6.974;2023-08-30T01:54:36;26.58;;;21.30;;
52730;SDS011;38624;53.242;6.974;2023-08-30T01:57:04;25.45;;;20.33;;
52730;SDS011;38624;53.242;6.974;2023-08-30T01:59:30;28.13;;;21.27;;
52730;SDS011;38624;53.242;6.974;2023-08-30T02:01:56;28.80;;;21.33;;
52730;SDS011;38624;53.242;6.974;2023-08-30T02:04:22;26.53;;;21.23;;
52730;SDS011;38624;53.242;6.974;2023-08-30T02:06:57;28.23;;;21.35;;
52730;SDS011;38624;53.242;6.974;2023-08-30T02:09:40;28.15;;;21.95;;
52730;SDS011;38624;53.242;6.974;2023-08-30T02:12:14;26.15;;;19.92;;
52730;SDS011;38624;53.242;6.974;2023-08-30T02:14:42;26.65;;;20.75;;
52730;SDS011;38624;53.242;6.974;2023-08-30T02:17:12;26.27;;;19.55;;
52730;SDS011;38624;53.242;6.974;2023-08-30T02:19:39;27.80;;;20.83;;
52730;SDS011;38624;53.242;6.974;2023-08-30T02:22:06;27.17;;;20.30;;
52730;SDS011;38624;53.242;6.974;2023-08-30T02:24:31;26.47;;;19.70;;
52730;SDS011;38624;53.242;6.974;2023-08-30T02:26:57;26.23;;;19.60;;
52730;SDS011;38624;53.242;6.974;2023-08-30T02:29:22;25.40;;;20.30;;
52730;SDS011;38624;53.242;6.974;2023-08-30T02:31:48;26.00;;;19.52;;
52730;SDS011;38624;53.242;6.974;2023-08-30T02:34:14;24.17;;;19.58;;
52730;SDS011;38624;53.242;6.974;2023-08-30T02:36:40;25.40;;;19.88;;
52730;SDS011;38624;53.242;6.974;2023-08-30T02:39:06;25.95;;;19.85;;
52730;SDS011;38624;53.242;6.974;2023-08-30T02:41:31;24.95;;;19.30;;
52730;SDS011;38624;53.242;6.974;2023-08-30T02:43:57;25.53;;;19.73;;
52730;SDS011;38624;53.242;6.974;2023-08-30T02:46:23;26.23;;;19.57;;
52730;SDS011;38624;53.242;6.974;2023-08-30T02:48:48;25.58;;;20.02;;
52730;SDS011;38624;53.242;6.974;2023-08-30T02:51:14;26.17;;;20.08;;
52730;SDS011;38624;53.242;6.974;2023-08-30T02:53:39;28.05;;;19.35;;
52730;SDS011;38624;53.242;6.974;2023-08-30T02:56:05;27.27;;;20.13;;
52730;SDS011;38624;53.242;6.974;2023-08-30T02:58:31;25.57;;;19.33;;
52730;SDS011;38624;53.242;6.974;2023-08-30T03:00:57;26.10;;;19.50;;
52730;SDS011;38624;53.242;6.974;2023-08-30T03:03:22;25.13;;;19.60;;
52730;SDS011;38624;53.242;6.974;2023-08-30T03:05:48;24.40;;;18.53;;
52730;SDS011;38624;53.242;6.974;2023-08-30T03:08:13;31.70;;;21.55;;
52730;SDS011;38624;53.242;6.974;2023-08-30T03:10:39;26.07;;;19.17;;
52730;SDS011;38624;53.242;6.974;2023-08-30T03:13:05;25.50;;;19.73;;
52730;SDS011;38624;53.242;6.974;2023-08-30T03:15:31;24.90;;;19.35;;
52730;SDS011;38624;53.242;6.974;2023-08-30T03:17:57;24.85;;;18.85;;
52730;SDS011;38624;53.242;6.974;2023-08-30T03:20:24;26.45;;;18.75;;
52730;SDS011;38624;53.242;6.974;2023-08-30T03:22:50;27.90;;;19.10;;
52730;SDS011;38624;53.242;6.974;2023-08-30T03:25:15;23.63;;;18.05;;
52730;SDS011;38624;53.242;6.974;2023-08-30T03:27:43;25.13;;;18.65;;
52730;SDS011;38624;53.242;6.974;2023-08-30T03:30:09;26.42;;;19.23;;
52730;SDS011;38624;53.242;6.974;2023-08-30T03:32:36;24.27;;;18.17;;
52730;SDS011;38624;53.242;6.974;2023-08-30T03:35:02;23.58;;;18.75;;
52730;SDS011;38624;53.242;6.974;2023-08-30T03:37:28;28.15;;;18.58;;
52730;SDS011;38624;53.242;6.974;2023-08-30T03:39:54;24.37;;;18.60;;
52730;SDS011;38624;53.242;6.974;2023-08-30T03:42:20;23.30;;;18.15;;
52730;SDS011;38624;53.242;6.974;2023-08-30T03:44:45;24.23;;;17.88;;
52730;SDS011;38624;53.242;6.974;2023-08-30T03:47:11;25.80;;;18.87;;
52730;SDS011;38624;53.242;6.974;2023-08-30T03:49:37;25.15;;;18.55;;
52730;SDS011;38624;53.242;6.974;2023-08-30T03:52:02;27.38;;;19.42;;
52730;SDS011;38624;53.242;6.974;2023-08-30T03:54:28;31.05;;;19.95;;
52730;SDS011;38624;53.242;6.974;2023-08-30T03:56:54;29.88;;;19.40;;
52730;SDS011;38624;53.242;6.974;2023-08-30T03:59:19;28.35;;;19.38;;
52730;SDS011;38624;53.242;6.974;2023-08-30T04:01:47;24.38;;;18.88;;
52730;SDS011;38624;53.242;6.974;2023-08-30T04:04:13;24.85;;;19.05;;
52730;SDS011;38624;53.242;6.974;2023-08-30T04:06:39;25.43;;;19.57;;
52730;SDS011;38624;53.242;6.974;2023-08-30T04:09:05;27.98;;;19.20;;
52730;SDS011;38624;53.242;6.974;2023-08-30T04:11:31;28.17;;;19.60;;
52730;SDS011;38624;53.242;6.974;2023-08-30T04:13:57;24.80;;;19.02;;
52730;SDS011;38624;53.242;6.974;2023-08-30T04:16:23;30.45;;;19.90;;
52730;SDS011;38624;53.242;6.974;2023-08-30T04:18:49;25.80;;;18.93;;
52730;SDS011;38624;53.242;6.974;2023-08-30T04:21:14;26.73;;;18.90;;
52730;SDS011;38624;53.242;6.974;2023-08-30T04:23:40;25.52;;;18.67;;
52730;SDS011;38624;53.242;6.974;2023-08-30T04:26:06;27.63;;;19.65;;
52730;SDS011;38624;53.242;6.974;2023-08-30T04:28:31;25.20;;;19.10;;
52730;SDS011;38624;53.242;6.974;2023-08-30T04:30:57;23.87;;;18.17;;
52730;SDS011;38624;53.242;6.974;2023-08-30T04:33:23;25.80;;;19.15;;
52730;SDS011;38624;53.242;6.974;2023-08-30T04:35:50;25.38;;;19.15;;
52730;SDS011;38624;53.242;6.974;2023-08-30T04:38:17;25.00;;;18.67;;
52730;SDS011;38624;53.242;6.974;2023-08-30T04:40:42;25.50;;;19.27;;
52730;SDS011;38624;53.242;6.974;2023-08-30T04:43:08;29.42;;;18.38;;
52730;SDS011;38624;53.242;6.974;2023-08-30T04:45:34;28.92;;;19.27;;
52730;SDS011;38624;53.242;6.974;2023-08-30T04:48:00;26.20;;;18.40;;
52730;SDS011;38624;53.242;6.974;2023-08-30T04:50:26;24.05;;;18.05;;
52730;SDS011;38624;53.242;6.974;2023-08-30T04:52:52;28.27;;;19.63;;
52730;SDS011;38624;53.242;6.974;2023-08-30T04:55:18;25.83;;;18.60;;
52730;SDS011;38624;53.242;6.974;2023-08-30T04:57:43;27.95;;;19.15;;
52730;SDS011;38624;53.242;6.974;2023-08-30T05:00:11;30.90;;;18.33;;
52730;SDS011;38624;53.242;6.974;2023-08-30T05:02:37;24.27;;;18.08;;
52730;SDS011;38624;53.242;6.974;2023-08-30T05:05:03;24.98;;;17.35;;
52730;SDS011;38624;53.242;6.974;2023-08-30T05:07:29;24.08;;;17.50;;
52730;SDS011;38624;53.242;6.974;2023-08-30T05:09:54;22.58;;;17.38;;
52730;SDS011;38624;53.242;6.974;2023-08-30T05:12:20;22.52;;;17.13;;
52730;SDS011;38624;53.242;6.974;2023-08-30T05:14:46;23.67;;;17.65;;
52730;SDS011;38624;53.242;6.974;2023-08-30T05:17:11;21.83;;;17.70;;
52730;SDS011;38624;53.242;6.974;2023-08-30T05:19:37;20.23;;;16.65;;
52730;SDS011;38624;53.242;6.974;2023-08-30T05:22:03;23.95;;;17.20;;
52730;SDS011;38624;53.242;6.974;2023-08-30T05:24:28;22.70;;;17.38;;
52730;SDS011;38624;53.242;6.974;2023-08-30T05:26:54;22.60;;;17.77;;
52730;SDS011;38624;53.242;6.974;2023-08-30T05:29:20;20.98;;;16.90;;
52730;SDS011;38624;53.242;6.974;2023-08-30T05:31:46;25.88;;;17.70;;
52730;SDS011;38624;53.242;6.974;2023-08-30T05:34:11;22.05;;;16.42;;
52730;SDS011;38624;53.242;6.974;2023-08-30T05:36:37;25.17;;;18.35;;
52730;SDS011;38624;53.242;6.974;2023-08-30T05:39:03;25.13;;;17.75;;
52730;SDS011;38624;53.242;6.974;2023-08-30T05:41:29;26.05;;;18.52;;
52730;SDS011;38624;53.242;6.974;2023-08-30T05:43:55;21.67;;;16.35;;
52730;SDS011;38624;53.242;6.974;2023-08-30T05:46:21;26.08;;;17.48;;
52730;SDS011;38624;53.242;6.974;2023-08-30T05:48:47;23.70;;;17.95;;
52730;SDS011;38624;53.242;6.974;2023-08-30T05:51:12;25.27;;;18.40;;
52730;SDS011;38624;53.242;6.974;2023-08-30T05:53:38;22.92;;;17.85;;
52730;SDS011;38624;53.242;6.974;2023-08-30T05:56:04;23.58;;;18.20;;
52730;SDS011;38624;53.242;6.974;2023-08-30T05:58:29;25.80;;;18.50;;
52730;SDS011;38624;53.242;6.974;2023-08-30T06:00:56;23.93;;;17.27;;
52730;SDS011;38624;53.242;6.974;2023-08-30T06:03:22;21.77;;;16.88;;
52730;SDS011;38624;53.242;6.974;2023-08-30T06:05:47;24.60;;;17.47;;
52730;SDS011;38624;53.242;6.974;2023-08-30T06:08:16;22.85;;;17.15;;
52730;SDS011;38624;53.242;6.974;2023-08-30T06:10:43;23.98;;;17.35;;
52730;SDS011;38624;53.242;6.974;2023-08-30T06:13:08;22.30;;;16.93;;
52730;SDS011;38624;53.242;6.974;2023-08-30T06:15:35;24.97;;;17.27;;
52730;SDS011;38624;53.242;6.974;2023-08-30T06:18:02;22.75;;;17.00;;
52730;SDS011;38624;53.242;6.974;2023-08-30T06:20:29;23.38;;;16.65;;
52730;SDS011;38624;53.242;6.974;2023-08-30T06:22:54;26.15;;;16.90;;
52730;SDS011;38624;53.242;6.974;2023-08-30T06:25:22;20.90;;;16.17;;
52730;SDS011;38624;53.242;6.974;2023-08-30T06:27:58;20.63;;;15.43;;
52730;SDS011;38624;53.242;6.974;2023-08-30T06:32:52;19.83;;;15.70;;
52730;SDS011;38624;53.242;6.974;2023-08-30T06:35:17;21.47;;;14.87;;
52730;SDS011;38624;53.242;6.974;2023-08-30T06:37:43;20.02;;;15.38;;
52730;SDS011;38624;53.242;6.974;2023-08-30T06:40:09;18.57;;;14.90;;
52730;SDS011;38624;53.242;6.974;2023-08-30T06:42:35;19.87;;;14.43;;
52730;SDS011;38624;53.242;6.974;2023-08-30T06:45:01;20.02;;;14.32;;
52730;SDS011;38624;53.242;6.974;2023-08-30T06:47:29;21.00;;;14.45;;
52730;SDS011;38624;53.242;6.974;2023-08-30T06:49:55;18.75;;;14.02;;
52730;SDS011;38624;53.242;6.974;2023-08-30T06:52:20;18.50;;;14.40;;
52730;SDS011;38624;53.242;6.974;2023-08-30T06:54:46;18.67;;;13.93;;
52730;SDS011;38624;53.242;6.974;2023-08-30T06:57:12;18.17;;;13.47;;
52730;SDS011;38624;53.242;6.974;2023-08-30T06:59:37;15.43;;;12.00;;
52730;SDS011;38624;53.242;6.974;2023-08-30T07:02:03;16.98;;;13.07;;
52730;SDS011;38624;53.242;6.974;2023-08-30T07:04:29;15.23;;;11.77;;
52730;SDS011;38624;53.242;6.974;2023-08-30T07:06:54;18.02;;;13.15;;
52730;SDS011;38624;53.242;6.974;2023-08-30T07:09:20;19.80;;;11.60;;
52730;SDS011;38624;53.242;6.974;2023-08-30T07:11:48;16.42;;;11.80;;
52730;SDS011;38624;53.242;6.974;2023-08-30T07:14:14;17.00;;;12.75;;
52730;SDS011;38624;53.242;6.974;2023-08-30T07:16:40;15.68;;;12.05;;
52730;SDS011;38624;53.242;6.974;2023-08-30T07:19:06;17.42;;;11.20;;
52730;SDS011;38624;53.242;6.974;2023-08-30T07:21:32;18.80;;;11.90;;
52730;SDS011;38624;53.242;6.974;2023-08-30T07:24:00;16.63;;;11.40;;
52730;SDS011;38624;53.242;6.974;2023-08-30T07:26:26;17.35;;;12.73;;
52730;SDS011;38624;53.242;6.974;2023-08-30T07:28:51;15.93;;;11.37;;
52730;SDS011;38624;53.242;6.974;2023-08-30T07:31:17;16.87;;;10.77;;
52730;SDS011;38624;53.242;6.974;2023-08-30T07:33:43;15.23;;;10.40;;
52730;SDS011;38624;53.242;6.974;2023-08-30T07:36:10;14.75;;;10.65;;
52730;SDS011;38624;53.242;6.974;2023-08-30T07:38:36;14.50;;;9.80;;
52730;SDS011;38624;53.242;6.974;2023-08-30T07:41:02;13.80;;;9.10;;
52730;SDS011;38624;53.242;6.974;2023-08-30T07:43:28;15.37;;;10.37;;
52730;SDS011;38624;53.242;6.974;2023-08-30T07:45:54;12.57;;;9.20;;
52730;SDS011;38624;53.242;6.974;2023-08-30T07:48:19;13.93;;;9.83;;
52730;SDS011;38624;53.242;6.974;2023-08-30T07:50:45;13.17;;;9.30;;
52730;SDS011;38624;53.242;6.974;2023-08-30T07:53:11;15.80;;;11.10;;
52730;SDS011;38624;53.242;6.974;2023-08-30T07:55:37;16.83;;;10.80;;
52730;SDS011;38624;53.242;6.974;2023-08-30T07:58:03;12.80;;;9.23;;
52730;SDS011;38624;53.242;6.974;2023-08-30T08:00:29;16.53;;;10.50;;
52730;SDS011;38624;53.242;6.974;2023-08-30T08:02:55;16.15;;;11.32;;
52730;SDS011;38624;53.242;6.974;2023-08-30T08:05:20;16.27;;;11.07;;
52730;SDS011;38624;53.242;6.974;2023-08-30T08:07:51;13.33;;;10.10;;
52730;SDS011;38624;53.242;6.974;2023-08-30T08:10:18;14.23;;;10.82;;
52730;SDS011;38624;53.242;6.974;2023-08-30T08:12:44;13.40;;;10.20;;
52730;SDS011;38624;53.242;6.974;2023-08-30T08:15:10;17.07;;;11.90;;
52730;SDS011;38624;53.242;6.974;2023-08-30T08:17:36;16.20;;;12.17;;
52730;SDS011;38624;53.242;6.974;2023-08-30T08:20:02;14.47;;;11.03;;
52730;SDS011;38624;53.242;6.974;2023-08-30T08:22:30;15.48;;;11.82;;
52730;SDS011;38624;53.242;6.974;2023-08-30T08:24:56;14.87;;;11.33;;
52730;SDS011;38624;53.242;6.974;2023-08-30T08:27:22;14.15;;;10.65;;
52730;SDS011;38624;53.242;6.974;2023-08-30T08:29:49;16.35;;;11.75;;
52730;SDS011;38624;53.242;6.974;2023-08-30T08:32:15;15.63;;;11.73;;
52730;SDS011;38624;53.242;6.974;2023-08-30T08:34:41;14.67;;;11.73;;
52730;SDS011;38624;53.242;6.974;2023-08-30T08:37:06;17.73;;;11.77;;
52730;SDS011;38624;53.242;6.974;2023-08-30T08:39:32;14.75;;;11.15;;
52730;SDS011;38624;53.242;6.974;2023-08-30T08:41:59;16.02;;;11.70;;
52730;SDS011;38624;53.242;6.974;2023-08-30T08:44:26;14.00;;;10.50;;
52730;SDS011;38624;53.242;6.974;2023-08-30T08:46:56;14.93;;;10.15;;
52730;SDS011;38624;53.242;6.974;2023-08-30T08:49:22;15.90;;;11.77;;
52730;SDS011;38624;53.242;6.974;2023-08-30T08:51:53;14.90;;;11.32;;
52730;SDS011;38624;53.242;6.974;2023-08-30T08:54:19;17.80;;;10.80;;
52730;SDS011;38624;53.242;6.974;2023-08-30T08:56:45;14.65;;;11.15;;
52730;SDS011;38624;53.242;6.974;2023-08-30T08:59:11;16.17;;;11.87;;
52730;SDS011;38624;53.242;6.974;2023-08-30T09:01:40;16.47;;;11.43;;
52730;SDS011;38624;53.242;6.974;2023-08-30T09:04:07;14.88;;;11.40;;
52730;SDS011;38624;53.242;6.974;2023-08-30T09:06:34;16.45;;;11.45;;
52730;SDS011;38624;53.242;6.974;2023-08-30T09:09:01;16.40;;;11.80;;
52730;SDS011;38624;53.242;6.974;2023-08-30T09:11:30;15.68;;;11.75;;
52730;SDS011;38624;53.242;6.974;2023-08-30T09:16:22;15.98;;;11.00;;
52730;SDS011;38624;53.242;6.974;2023-08-30T09:19:01;14.82;;;11.25;;
52730;SDS011;38624;53.242;6.974;2023-08-30T09:21:29;14.57;;;11.88;;
52730;SDS011;38624;53.242;6.974;2023-08-30T09:24:03;16.10;;;11.82;;
52730;SDS011;38624;53.242;6.974;2023-08-30T09:26:30;11.40;;;9.10;;
52730;SDS011;38624;53.242;6.974;2023-08-30T09:31:33;16.20;;;12.77;;
52730;SDS011;38624;53.242;6.974;2023-08-30T09:34:07;15.27;;;12.00;;
52730;SDS011;38624;53.242;6.974;2023-08-30T09:36:37;16.15;;;11.40;;
52730;SDS011;38624;53.242;6.974;2023-08-30T09:39:07;15.88;;;10.40;;
52730;SDS011;38624;53.242;6.974;2023-08-30T09:41:37;14.02;;;10.43;;
52730;SDS011;38624;53.242;6.974;2023-08-30T09:44:10;16.45;;;9.80;;
52730;SDS011;38624;53.242;6.974;2023-08-30T09:46:43;12.65;;;9.73;;
52730;SDS011;38624;53.242;6.974;2023-08-30T09:49:10;15.07;;;11.75;;
52730;SDS011;38624;53.242;6.974;2023-08-30T09:51:37;14.13;;;10.15;;
52730;SDS011;38624;53.242;6.974;2023-08-30T09:54:11;15.05;;;9.85;;
52730;SDS011;38624;53.242;6.974;2023-08-30T09:56:38;15.95;;;11.75;;
52730;SDS011;38624;53.242;6.974;2023-08-30T09:59:06;15.77;;;11.88;;
52730;SDS011;38624;53.242;6.974;2023-08-30T10:01:32;15.82;;;12.30;;
52730;SDS011;38624;53.242;6.974;2023-08-30T10:03:59;15.95;;;11.45;;
52730;SDS011;38624;53.242;6.974;2023-08-30T10:06:28;15.05;;;9.98;;
52730;SDS011;38624;53.242;6.974;2023-08-30T10:08:55;14.68;;;11.52;;
52730;SDS011;38624;53.242;6.974;2023-08-30T10:13:48;14.18;;;10.48;;
52730;SDS011;38624;53.242;6.974;2023-08-30T10:16:18;15.23;;;10.18;;
52730;SDS011;38624;53.242;6.974;2023-08-30T10:18:52;16.63;;;11.00;;
52730;SDS011;38624;53.242;6.974;2023-08-30T10:21:27;12.82;;;9.07;;
52730;SDS011;38624;53.242;6.974;2023-08-30T10:23:54;15.43;;;10.50;;
52730;SDS011;38624;53.242;6.974;2023-08-30T10:26:22;13.98;;;9.50;;
52730;SDS011;38624;53.242;6.974;2023-08-30T10:28:51;10.43;;;8.05;;
52730;SDS011;38624;53.242;6.974;2023-08-30T10:31:18;13.00;;;8.95;;
52730;SDS011;38624;53.242;6.974;2023-08-30T10:33:48;14.87;;;9.20;;
52730;SDS011;38624;53.242;6.974;2023-08-30T10:36:20;15.00;;;9.60;;
52730;SDS011;38624;53.242;6.974;2023-08-30T10:38:53;13.63;;;9.43;;
52730;SDS011;38624;53.242;6.974;2023-08-30T10:41:20;13.18;;;9.20;;
52730;SDS011;38624;53.242;6.974;2023-08-30T10:43:50;13.15;;;8.85;;
52730;SDS011;38624;53.242;6.974;2023-08-30T10:46:17;14.00;;;9.82;;
52730;SDS011;38624;53.242;6.974;2023-08-30T10:51:23;16.63;;;9.93;;
52730;SDS011;38624;53.242;6.974;2023-08-30T10:54:11;13.15;;;9.30;;
52730;SDS011;38624;53.242;6.974;2023-08-30T10:56:56;11.85;;;7.80;;
52730;SDS011;38624;53.242;6.974;2023-08-30T10:59:25;12.30;;;9.48;;
52730;SDS011;38624;53.242;6.974;2023-08-30T11:01:52;12.10;;;8.50;;
52730;SDS011;38624;53.242;6.974;2023-08-30T11:04:18;12.77;;;8.60;;
52730;SDS011;38624;53.242;6.974;2023-08-30T11:06:47;10.98;;;7.95;;
52730;SDS011;38624;53.242;6.974;2023-08-30T11:09:14;10.27;;;7.28;;
52730;SDS011;38624;53.242;6.974;2023-08-30T11:11:43;12.50;;;8.20;;
52730;SDS011;38624;53.242;6.974;2023-08-30T11:14:10;8.55;;;6.82;;
52730;SDS011;38624;53.242;6.974;2023-08-30T11:16:36;10.13;;;7.17;;
52730;SDS011;38624;53.242;6.974;2023-08-30T11:21:32;10.32;;;6.65;;
52730;SDS011;38624;53.242;6.974;2023-08-30T11:23:59;8.55;;;6.85;;
52730;SDS011;38624;53.242;6.974;2023-08-30T11:26:25;9.63;;;7.23;;
52730;SDS011;38624;53.242;6.974;2023-08-30T11:28:51;10.90;;;7.40;;
52730;SDS011;38624;53.242;6.974;2023-08-30T11:31:21;11.45;;;7.20;;
52730;SDS011;38624;53.242;6.974;2023-08-30T11:33:52;9.10;;;6.40;;
52730;SDS011;38624;53.242;6.974;2023-08-30T11:36:22;7.70;;;5.80;;
52730;SDS011;38624;53.242;6.974;2023-08-30T11:38:49;7.30;;;5.95;;
52730;SDS011;38624;53.242;6.974;2023-08-30T11:41:15;7.82;;;5.38;;
52730;SDS011;38624;53.242;6.974;2023-08-30T11:43:42;6.97;;;5.30;;
52730;SDS011;38624;53.242;6.974;2023-08-30T11:46:10;8.63;;;5.60;;
52730;SDS011;38624;53.242;6.974;2023-08-30T11:48:37;8.70;;;6.70;;
52730;SDS011;38624;53.242;6.974;2023-08-30T11:51:05;11.45;;;8.30;;
52730;SDS011;38624;53.242;6.974;2023-08-30T11:53:31;12.20;;;8.43;;
52730;SDS011;38624;53.242;6.974;2023-08-30T11:55:57;11.93;;;9.20;;
52730;SDS011;38624;53.242;6.974;2023-08-30T11:58:23;11.57;;;8.93;;
52730;SDS011;38624;53.242;6.974;2023-08-30T12:00:49;12.63;;;9.43;;
52730;SDS011;38624;53.242;6.974;2023-08-30T12:03:16;15.65;;;10.18;;
52730;SDS011;38624;53.242;6.974;2023-08-30T12:05:48;10.00;;;7.30;;
52730;SDS011;38624;53.242;6.974;2023-08-30T12:08:38;11.98;;;8.80;;
52730;SDS011;38624;53.242;6.974;2023-08-30T12:11:03;11.32;;;8.80;;
52730;SDS011;38624;53.242;6.974;2023-08-30T12:13:29;9.50;;;7.40;;
52730;SDS011;38624;53.242;6.974;2023-08-30T12:15:58;11.00;;;7.47;;
52730;SDS011;38624;53.242;6.974;2023-08-30T12:20:57;8.40;;;4.82;;
52730;SDS011;38624;53.242;6.974;2023-08-30T12:23:31;7.80;;;6.53;;
52730;SDS011;38624;53.242;6.974;2023-08-30T12:26:08;14.20;;;8.48;;
52730;SDS011;38624;53.242;6.974;2023-08-30T12:28:35;9.75;;;8.18;;
52730;SDS011;38624;53.242;6.974;2023-08-30T12:31:05;12.32;;;9.10;;
52730;SDS011;38624;53.242;6.974;2023-08-30T12:33:34;11.93;;;7.90;;
52730;SDS011;38624;53.242;6.974;2023-08-30T12:36:00;9.02;;;7.50;;
52730;SDS011;38624;53.242;6.974;2023-08-30T12:38:26;8.63;;;6.60;;
52730;SDS011;38624;53.242;6.974;2023-08-30T12:40:53;8.60;;;7.07;;
52730;SDS011;38624;53.242;6.974;2023-08-30T12:45:45;11.07;;;8.10;;
52730;SDS011;38624;53.242;6.974;2023-08-30T12:48:11;10.73;;;7.43;;
52730;SDS011;38624;53.242;6.974;2023-08-30T12:50:41;11.48;;;8.43;;
52730;SDS011;38624;53.242;6.974;2023-08-30T12:53:12;10.20;;;8.05;;
52730;SDS011;38624;53.242;6.974;2023-08-30T12:55:38;10.45;;;8.32;;
52730;SDS011;38624;53.242;6.974;2023-08-30T12:58:05;10.20;;;8.35;;
52730;SDS011;38624;53.242;6.974;2023-08-30T13:00:32;13.95;;;9.32;;
52730;SDS011;38624;53.242;6.974;2023-08-30T13:02:58;13.50;;;9.02;;
52730;SDS011;38624;53.242;6.974;2023-08-30T13:05:25;11.52;;;9.18;;
52730;SDS011;38624;53.242;6.974;2023-08-30T13:07:51;11.02;;;9.40;;
52730;SDS011;38624;53.242;6.974;2023-08-30T13:10:17;13.00;;;9.37;;
52730;SDS011;38624;53.242;6.974;2023-08-30T13:12:43;10.40;;;8.57;;
52730;SDS011;38624;53.242;6.974;2023-08-30T13:15:09;13.43;;;9.10;;
52730;SDS011;38624;53.242;6.974;2023-08-30T13:17:35;11.15;;;8.68;;
52730;SDS011;38624;53.242;6.974;2023-08-30T13:20:01;11.07;;;8.67;;
52730;SDS011;38624;53.242;6.974;2023-08-30T13:22:28;12.50;;;9.32;;
52730;SDS011;38624;53.242;6.974;2023-08-30T13:24:54;11.32;;;9.43;;
52730;SDS011;38624;53.242;6.974;2023-08-30T13:27:20;11.77;;;9.27;;
52730;SDS011;38624;53.242;6.974;2023-08-30T13:29:46;12.37;;;9.00;;
52730;SDS011;38624;53.242;6.974;2023-08-30T13:32:11;11.33;;;9.03;;
52730;SDS011;38624;53.242;6.974;2023-08-30T13:34:37;10.90;;;8.93;;
52730;SDS011;38624;53.242;6.974;2023-08-30T13:37:10;11.85;;;9.63;;
52730;SDS011;38624;53.242;6.974;2023-08-30T13:39:37;11.10;;;9.48;;
52730;SDS011;38624;53.242;6.974;2023-08-30T13:42:02;11.73;;;9.70;;
52730;SDS011;38624;53.242;6.974;2023-08-30T13:44:28;12.33;;;9.63;;
52730;SDS011;38624;53.242;6.974;2023-08-30T13:46:54;14.50;;;9.60;;
52730;SDS011;38624;53.242;6.974;2023-08-30T13:49:20;10.87;;;9.63;;
52730;SDS011;38624;53.242;6.974;2023-08-30T13:51:46;11.77;;;9.20;;
52730;SDS011;38624;53.242;6.974;2023-08-30T13:54:11;11.73;;;9.53;;
52730;SDS011;38624;53.242;6.974;2023-08-30T13:56:37;12.53;;;10.23;;
52730;SDS011;38624;53.242;6.974;2023-08-30T13:59:03;15.10;;;9.83;;
52730;SDS011;38624;53.242;6.974;2023-08-30T14:01:31;12.18;;;9.95;;
52730;SDS011;38624;53.242;6.974;2023-08-30T14:03:57;11.23;;;9.97;;
52730;SDS011;38624;53.242;6.974;2023-08-30T14:06:23;13.57;;;9.57;;
52730;SDS011;38624;53.242;6.974;2023-08-30T14:08:48;14.80;;;11.23;;
52730;SDS011;38624;53.242;6.974;2023-08-30T14:11:14;12.90;;;10.93;;
52730;SDS011;38624;53.242;6.974;2023-08-30T14:13:40;16.63;;;11.00;;
52730;SDS011;38624;53.242;6.974;2023-08-30T14:16:05;12.80;;;10.70;;
52730;SDS011;38624;53.242;6.974;2023-08-30T14:18:32;13.02;;;10.98;;
52730;SDS011;38624;53.242;6.974;2023-08-30T14:20:58;15.67;;;12.17;;
52730;SDS011;38624;53.242;6.974;2023-08-30T14:28:34;13.27;;;10.60;;
52730;SDS011;38624;53.242;6.974;2023-08-30T14:33:26;19.40;;;12.13;;
52730;SDS011;38624;53.242;6.974;2023-08-30T14:35:52;19.23;;;12.30;;
52730;SDS011;38624;53.242;6.974;2023-08-30T14:38:18;13.37;;;10.97;;
52730;SDS011;38624;53.242;6.974;2023-08-30T14:40:53;14.50;;;10.55;;
52730;SDS011;38624;53.242;6.974;2023-08-30T14:43:28;11.65;;;8.57;;
52730;SDS011;38624;53.242;6.974;2023-08-30T14:46:01;8.15;;;5.82;;
52730;SDS011;38624;53.242;6.974;2023-08-30T14:48:28;4.50;;;3.22;;
52730;SDS011;38624;53.242;6.974;2023-08-30T14:50:54;4.63;;;2.20;;
52730;SDS011;38624;53.242;6.974;2023-08-30T14:53:20;2.93;;;2.20;;
52730;SDS011;38624;53.242;6.974;2023-08-30T14:55:45;3.43;;;2.27;;
52730;SDS011;38624;53.242;6.974;2023-08-30T14:58:14;3.07;;;2.00;;
52730;SDS011;38624;53.242;6.974;2023-08-30T15:00:40;3.20;;;2.35;;
52730;SDS011;38624;53.242;6.974;2023-08-30T15:03:06;7.07;;;1.97;;